Cala Panama — V2BC4 — position and weather

sailwx.info

Track history (hours):
 
Tides and Currents Weather Stations Pressure Air Temp Water Temp Dewpoint Dewpoint Depression Visibility Wind Speed Wind Dir Waves Ship Positions

Cala Panama

Last reported at 2018-Jan-20 19:00 UTC. Time now 2018-Jan-20 19:16 UTC.
Position N 45°38' E 013°46'.

Length 153.6 m; beam 25.3 m; draft 10.1 m.

Type: Cargo ship. MMSI: 304490000.

Date/timePositionNaut miles runAvg speedWind from/ knotsBaromVisibWave heightAir tempDewpointWater temp
2018-Jan-20 19:00N 45°38' E 013°46'0 0.0
2018-Jan-20 18:24N 45°38' E 013°46'0 0.0
2018-Jan-20 18:00N 45°38' E 013°46'0 0.0
2018-Jan-20 17:30N 45°38' E 013°46'0 0.0
2018-Jan-20 17:00N 45°38' E 013°46'0 0.0
2018-Jan-20 16:30N 45°38' E 013°46'0 0.0
2018-Jan-20 16:00N 45°38' E 013°46'0 0.0
2018-Jan-20 15:29N 45°38' E 013°46'0 0.0
2018-Jan-20 14:56N 45°38' E 013°46'0 0.0
2018-Jan-20 14:29N 45°38' E 013°46'0 0.0
2018-Jan-20 13:59N 45°38' E 013°46'0 0.0
2018-Jan-20 13:29N 45°38' E 013°46'0 0.0
2018-Jan-20 12:59N 45°38' E 013°46'0 0.0
2018-Jan-20 12:29N 45°38' E 013°46'0 0.2
2018-Jan-20 12:00N 45°38' E 013°46'2 3.9
2018-Jan-20 11:30N 45°38' E 013°43'5 9.1
2018-Jan-20 11:01N 45°37' E 013°37'714.8
2018-Jan-20 10:31N 45°33' E 013°28'714.7
2018-Jan-20 10:01N 45°28' E 013°21'815.8
2018-Jan-20 09:30N 45°20' E 013°18'815.9
2018-Jan-20 09:00N 45°12' E 013°19'816.2
2018-Jan-20 08:31N 45°05' E 013°22'816.2
2018-Jan-20 08:01N 44°57' E 013°26'816.1
2018-Jan-20 07:30N 44°50' E 013°31'816.2
2018-Jan-20 07:00N 44°42' E 013°37'  
2018-Jan-12 07:13N 37°54' E 024°33'314.4
2018-Jan-12 06:58N 37°52' E 024°30'814.3
2018-Jan-12 06:23N 37°46' E 024°22'1014.4
2018-Jan-12 05:43N 37°39' E 024°13'414.2
2018-Jan-12 05:28N 37°37' E 024°10'714.7
2018-Jan-12 05:01N 37°31' E 024°06'714.6
2018-Jan-12 04:31N 37°25' E 024°01'  
Track history (hours):
 
Tides and Currents Weather Stations Pressure Air Temp Water Temp Dewpoint Dewpoint Depression Visibility Wind Speed Wind Dir Waves Ship Positions

Cala Panama

Last reported at 2018-Jan-20 19:00 UTC. Time now 2018-Jan-20 19:16 UTC.
Position N 45°38' E 013°46'.

Length 153.6 m; beam 25.3 m; draft 10.1 m.

Type: Cargo ship. MMSI: 304490000.

Date/timePositionNaut miles runAvg speedWind from/ knotsBaromVisibWave heightAir tempDewpointWater temp
2018-Jan-20 19:00N 45°38' E 013°46'0 0.0
2018-Jan-20 18:24N 45°38' E 013°46'0 0.0
2018-Jan-20 18:00N 45°38' E 013°46'0 0.0
2018-Jan-20 17:30N 45°38' E 013°46'0 0.0
2018-Jan-20 17:00N 45°38' E 013°46'0 0.0
2018-Jan-20 16:30N 45°38' E 013°46'0 0.0
2018-Jan-20 16:00N 45°38' E 013°46'0 0.0
2018-Jan-20 15:29N 45°38' E 013°46'0 0.0
2018-Jan-20 14:56N 45°38' E 013°46'0 0.0
2018-Jan-20 14:29N 45°38' E 013°46'0 0.0
2018-Jan-20 13:59N 45°38' E 013°46'0 0.0
2018-Jan-20 13:29N 45°38' E 013°46'0 0.0
2018-Jan-20 12:59N 45°38' E 013°46'0 0.0
2018-Jan-20 12:29N 45°38' E 013°46'0 0.2
2018-Jan-20 12:00N 45°38' E 013°46'2 3.9
2018-Jan-20 11:30N 45°38' E 013°43'5 9.1
2018-Jan-20 11:01N 45°37' E 013°37'714.8
2018-Jan-20 10:31N 45°33' E 013°28'714.7
2018-Jan-20 10:01N 45°28' E 013°21'815.8
2018-Jan-20 09:30N 45°20' E 013°18'815.9
2018-Jan-20 09:00N 45°12' E 013°19'816.2
2018-Jan-20 08:31N 45°05' E 013°22'816.2
2018-Jan-20 08:01N 44°57' E 013°26'816.1
2018-Jan-20 07:30N 44°50' E 013°31'816.2
2018-Jan-20 07:00N 44°42' E 013°37'  
2018-Jan-12 07:13N 37°54' E 024°33'314.4
2018-Jan-12 06:58N 37°52' E 024°30'814.3
2018-Jan-12 06:23N 37°46' E 024°22'1014.4
2018-Jan-12 05:43N 37°39' E 024°13'414.2
2018-Jan-12 05:28N 37°37' E 024°10'714.7
2018-Jan-12 05:01N 37°31' E 024°06'714.6
2018-Jan-12 04:31N 37°25' E 024°01'  

Dump ship's entire track history